sensor_id;sensor_type;location;lat;lon;timestamp;pressure;altitude;pressure_sealevel;temperature;humidity
50282;BME280;36176;51.506;10.272;2023-01-23T00:01:25;101119.88;;;0.55;96.31
50282;BME280;36176;51.506;10.272;2023-01-23T00:03:53;101129.41;;;0.53;96.34
50282;BME280;36176;51.506;10.272;2023-01-23T00:06:21;101125.81;;;0.48;96.28
50282;BME280;36176;51.506;10.272;2023-01-23T00:08:49;101123.91;;;0.40;96.81
50282;BME280;36176;51.506;10.272;2023-01-23T00:11:19;101123.88;;;0.37;97.46
50282;BME280;36176;51.506;10.272;2023-01-23T00:13:46;101118.66;;;0.37;97.70
50282;BME280;36176;51.506;10.272;2023-01-23T00:16:16;101122.22;;;0.41;97.62
50282;BME280;36176;51.506;10.272;2023-01-23T00:18:44;101125.75;;;0.45;97.54
50282;BME280;36176;51.506;10.272;2023-01-23T00:21:14;101124.88;;;0.44;97.42
50282;BME280;36176;51.506;10.272;2023-01-23T00:23:43;101125.88;;;0.51;97.32
50282;BME280;36176;51.506;10.272;2023-01-23T00:26:18;101113.81;;;0.57;97.64
50282;BME280;36176;51.506;10.272;2023-01-23T00:28:46;101107.81;;;0.60;97.45
50282;BME280;36176;51.506;10.272;2023-01-23T00:31:18;101123.53;;;0.64;97.34
50282;BME280;36176;51.506;10.272;2023-01-23T00:33:46;101117.44;;;0.64;96.74
50282;BME280;36176;51.506;10.272;2023-01-23T00:36:14;101112.22;;;0.62;97.19
50282;BME280;36176;51.506;10.272;2023-01-23T00:38:41;101110.53;;;0.66;97.19
50282;BME280;36176;51.506;10.272;2023-01-23T00:41:08;101112.22;;;0.62;96.83
50282;BME280;36176;51.506;10.272;2023-01-23T00:43:35;101120.00;;;0.61;96.96
50282;BME280;36176;51.506;10.272;2023-01-23T00:46:02;101120.97;;;0.66;96.93
50282;BME280;36176;51.506;10.272;2023-01-23T00:48:29;101116.69;;;0.70;96.93
50282;BME280;36176;51.506;10.272;2023-01-23T00:50:56;101129.66;;;0.65;96.65
50282;BME280;36176;51.506;10.272;2023-01-23T00:53:23;101139.19;;;0.64;96.88
50282;BME280;36176;51.506;10.272;2023-01-23T00:55:50;101128.75;;;0.64;96.95
50282;BME280;36176;51.506;10.272;2023-01-23T00:58:19;101129.66;;;0.67;96.50
50282;BME280;36176;51.506;10.272;2023-01-23T01:00:46;101133.19;;;0.67;96.69
50282;BME280;36176;51.506;10.272;2023-01-23T01:03:13;101135.69;;;0.64;96.79
50282;BME280;36176;51.506;10.272;2023-01-23T01:05:40;101141.78;;;0.63;96.53
50282;BME280;36176;51.506;10.272;2023-01-23T01:08:07;101136.63;;;0.66;96.98
50282;BME280;36176;51.506;10.272;2023-01-23T01:10:34;101156.66;;;0.69;96.75
50282;BME280;36176;51.506;10.272;2023-01-23T01:13:01;101149.72;;;0.69;96.95
50282;BME280;36176;51.506;10.272;2023-01-23T01:15:29;101157.47;;;0.66;97.01
50282;BME280;36176;51.506;10.272;2023-01-23T01:17:57;101153.13;;;0.67;96.89
50282;BME280;36176;51.506;10.272;2023-01-23T01:20:26;101160.97;;;0.65;96.94
50282;BME280;36176;51.506;10.272;2023-01-23T01:22:55;101156.66;;;0.67;96.67
50282;BME280;36176;51.506;10.272;2023-01-23T01:25:23;101151.44;;;0.67;97.22
50282;BME280;36176;51.506;10.272;2023-01-23T01:27:50;101158.34;;;0.67;96.74
50282;BME280;36176;51.506;10.272;2023-01-23T01:30:17;101156.66;;;0.67;96.87
50282;BME280;36176;51.506;10.272;2023-01-23T01:32:45;101151.34;;;0.64;96.75
50282;BME280;36176;51.506;10.272;2023-01-23T01:35:12;101153.13;;;0.65;96.54
50282;BME280;36176;51.506;10.272;2023-01-23T01:37:40;101151.34;;;0.62;96.82
50282;BME280;36176;51.506;10.272;2023-01-23T01:40:14;101164.34;;;0.61;96.99
50282;BME280;36176;51.506;10.272;2023-01-23T01:42:55;101155.69;;;0.63;97.11
50282;BME280;36176;51.506;10.272;2023-01-23T01:48:27;101161.84;;;0.66;96.77
50282;BME280;36176;51.506;10.272;2023-01-23T01:50:56;101160.97;;;0.65;96.59
50282;BME280;36176;51.506;10.272;2023-01-23T01:53:26;101157.47;;;0.66;96.73
50282;BME280;36176;51.506;10.272;2023-01-23T01:55:55;101167.91;;;0.66;96.98
50282;BME280;36176;51.506;10.272;2023-01-23T01:58:23;101164.41;;;0.64;96.47
50282;BME280;36176;51.506;10.272;2023-01-23T02:00:50;101166.03;;;0.59;96.33
50282;BME280;36176;51.506;10.272;2023-01-23T02:03:17;101166.84;;;0.56;96.73
50282;BME280;36176;51.506;10.272;2023-01-23T02:05:47;101161.69;;;0.58;96.78
50282;BME280;36176;51.506;10.272;2023-01-23T02:08:23;101161.78;;;0.62;97.40
50282;BME280;36176;51.506;10.272;2023-01-23T02:10:52;101166.09;;;0.62;97.28
50282;BME280;36176;51.506;10.272;2023-01-23T02:13:30;101167.09;;;0.67;97.39
50282;BME280;36176;51.506;10.272;2023-01-23T02:18:39;101167.44;;;0.85;97.50
50282;BME280;36176;51.506;10.272;2023-01-23T02:21:11;101173.63;;;0.91;96.62
50282;BME280;36176;51.506;10.272;2023-01-23T02:24:26;101169.25;;;0.90;96.96
50282;BME280;36176;51.506;10.272;2023-01-23T02:26:43;101176.91;;;0.80;96.71
50282;BME280;36176;51.506;10.272;2023-01-23T02:29:12;101183.75;;;0.75;96.84
50282;BME280;36176;51.506;10.272;2023-01-23T02:31:39;101178.59;;;0.77;96.68
50282;BME280;36176;51.506;10.272;2023-01-23T02:34:10;101180.34;;;0.78;96.71
50282;BME280;36176;51.506;10.272;2023-01-23T02:36:40;101179.38;;;0.73;97.05
50282;BME280;36176;51.506;10.272;2023-01-23T02:39:13;101191.50;;;0.71;96.77
50282;BME280;36176;51.506;10.272;2023-01-23T02:41:43;101191.50;;;0.71;96.96
50282;BME280;36176;51.506;10.272;2023-01-23T02:44:16;101187.09;;;0.68;96.99
50282;BME280;36176;51.506;10.272;2023-01-23T02:46:43;101196.63;;;0.66;97.20
50282;BME280;36176;51.506;10.272;2023-01-23T02:49:10;101198.31;;;0.64;97.41
50282;BME280;36176;51.506;10.272;2023-01-23T02:51:37;101197.34;;;0.59;97.67
50282;BME280;36176;51.506;10.272;2023-01-23T02:54:04;101205.06;;;0.54;97.35
50282;BME280;36176;51.506;10.272;2023-01-23T02:56:31;101213.75;;;0.53;97.57
50282;BME280;36176;51.506;10.272;2023-01-23T02:58:59;101212.06;;;0.57;97.72
50282;BME280;36176;51.506;10.272;2023-01-23T03:01:45;101212.94;;;0.57;98.22
50282;BME280;36176;51.506;10.272;2023-01-23T03:04:12;101215.66;;;0.60;98.06
50282;BME280;36176;51.506;10.272;2023-01-23T03:06:39;101222.50;;;0.55;98.11
50282;BME280;36176;51.506;10.272;2023-01-23T03:09:15;101225.13;;;0.57;98.16
50282;BME280;36176;51.506;10.272;2023-01-23T03:11:45;101219.97;;;0.60;98.09
50282;BME280;36176;51.506;10.272;2023-01-23T03:14:15;101230.41;;;0.60;98.13
50282;BME280;36176;51.506;10.272;2023-01-23T03:16:44;101233.09;;;0.63;97.68
50282;BME280;36176;51.506;10.272;2023-01-23T03:19:17;101227.94;;;0.66;97.89
50282;BME280;36176;51.506;10.272;2023-01-23T03:21:44;101228.03;;;0.71;97.78
50282;BME280;36176;51.506;10.272;2023-01-23T03:24:12;101228.06;;;0.72;97.29
50282;BME280;36176;51.506;10.272;2023-01-23T03:26:42;101231.56;;;0.73;97.28
50282;BME280;36176;51.506;10.272;2023-01-23T03:29:17;101230.69;;;0.72;97.21
50282;BME280;36176;51.506;10.272;2023-01-23T03:32:03;101230.53;;;0.66;97.24
50282;BME280;36176;51.506;10.272;2023-01-23T03:34:31;101234.06;;;0.68;97.78
50282;BME280;36176;51.506;10.272;2023-01-23T03:36:59;101230.69;;;0.72;97.37
50282;BME280;36176;51.506;10.272;2023-01-23T03:39:27;101233.28;;;0.74;97.35
50282;BME280;36176;51.506;10.272;2023-01-23T03:42:12;101240.25;;;0.73;97.17
50282;BME280;36176;51.506;10.272;2023-01-23T03:44:39;101237.66;;;0.73;97.83
50282;BME280;36176;51.506;10.272;2023-01-23T03:47:06;101241.13;;;0.72;97.62
50282;BME280;36176;51.506;10.272;2023-01-23T03:49:33;101238.31;;;0.64;97.65
50282;BME280;36176;51.506;10.272;2023-01-23T03:52:01;101241.88;;;0.68;97.86
50282;BME280;36176;51.506;10.272;2023-01-23T03:54:28;101246.25;;;0.69;97.44
50282;BME280;36176;51.506;10.272;2023-01-23T03:56:55;101243.72;;;0.74;97.60
50282;BME280;36176;51.506;10.272;2023-01-23T03:59:22;101243.88;;;0.80;97.26
50282;BME280;36176;51.506;10.272;2023-01-23T04:01:49;101251.81;;;0.84;97.33
50282;BME280;36176;51.506;10.272;2023-01-23T04:04:16;101251.00;;;0.89;96.88
50282;BME280;36176;51.506;10.272;2023-01-23T04:06:43;101255.38;;;0.90;97.27
50282;BME280;36176;51.506;10.272;2023-01-23T04:09:10;101258.00;;;0.90;96.40
50282;BME280;36176;51.506;10.272;2023-01-23T04:11:37;101252.72;;;0.87;97.02
50282;BME280;36176;51.506;10.272;2023-01-23T04:14:04;101257.94;;;0.87;96.77
50282;BME280;36176;51.506;10.272;2023-01-23T04:16:31;101256.19;;;0.87;96.29
50282;BME280;36176;51.506;10.272;2023-01-23T04:18:58;101258.00;;;0.90;96.63
50282;BME280;36176;51.506;10.272;2023-01-23T04:21:25;101253.69;;;0.92;96.23
50282;BME280;36176;51.506;10.272;2023-01-23T04:23:52;101259.72;;;0.89;96.22
50282;BME280;36176;51.506;10.272;2023-01-23T04:26:19;101252.81;;;0.91;96.96
50282;BME280;36176;51.506;10.272;2023-01-23T04:28:46;101263.28;;;0.93;96.24
50282;BME280;36176;51.506;10.272;2023-01-23T04:31:13;101265.88;;;0.91;96.05
50282;BME280;36176;51.506;10.272;2023-01-23T04:33:40;101259.72;;;0.89;96.35
50282;BME280;36176;51.506;10.272;2023-01-23T04:36:07;101264.03;;;0.89;96.30
50282;BME280;36176;51.506;10.272;2023-01-23T04:38:34;101259.72;;;0.89;96.56
50282;BME280;36176;51.506;10.272;2023-01-23T04:41:02;101263.16;;;0.87;96.51
50282;BME280;36176;51.506;10.272;2023-01-23T04:43:30;101261.38;;;0.84;96.06
50282;BME280;36176;51.506;10.272;2023-01-23T04:45:57;101260.34;;;0.77;96.29
50282;BME280;36176;51.506;10.272;2023-01-23T04:48:24;101260.28;;;0.74;96.21
50282;BME280;36176;51.506;10.272;2023-01-23T04:50:51;101255.03;;;0.73;96.29
50282;BME280;36176;51.506;10.272;2023-01-23T04:53:18;101254.13;;;0.71;96.45
50282;BME280;36176;51.506;10.272;2023-01-23T04:55:47;101250.63;;;0.72;96.32
50282;BME280;36176;51.506;10.272;2023-01-23T04:58:16;101259.28;;;0.68;96.43
50282;BME280;36176;51.506;10.272;2023-01-23T05:00:44;101254.88;;;0.65;96.36
50282;BME280;36176;51.506;10.272;2023-01-23T05:03:12;101253.09;;;0.64;96.51
50282;BME280;36176;51.506;10.272;2023-01-23T05:05:39;101253.13;;;0.66;96.29
50282;BME280;36176;51.506;10.272;2023-01-23T05:08:06;101258.19;;;0.58;96.62
50282;BME280;36176;51.506;10.272;2023-01-23T05:10:33;101250.38;;;0.58;96.57
50282;BME280;36176;51.506;10.272;2023-01-23T05:13:00;101252.13;;;0.59;97.22
50282;BME280;36176;51.506;10.272;2023-01-23T05:15:27;101253.03;;;0.61;96.79
50282;BME280;36176;51.506;10.272;2023-01-23T05:17:56;101256.56;;;0.63;96.23
50282;BME280;36176;51.506;10.272;2023-01-23T05:20:23;101255.69;;;0.64;96.66
50282;BME280;36176;51.506;10.272;2023-01-23T05:22:51;101248.78;;;0.66;96.58
50282;BME280;36176;51.506;10.272;2023-01-23T05:25:23;101250.59;;;0.69;96.39
50282;BME280;36176;51.506;10.272;2023-01-23T05:27:51;101241.84;;;0.67;96.30
50282;BME280;36176;51.506;10.272;2023-01-23T05:30:21;101245.31;;;0.66;96.72
50282;BME280;36176;51.506;10.272;2023-01-23T05:32:48;101240.91;;;0.64;96.35
50282;BME280;36176;51.506;10.272;2023-01-23T05:35:16;101240.97;;;0.66;96.42
50282;BME280;36176;51.506;10.272;2023-01-23T05:37:47;101241.81;;;0.65;96.29
50282;BME280;36176;51.506;10.272;2023-01-23T05:40:14;101241.78;;;0.63;96.32
50282;BME280;36176;51.506;10.272;2023-01-23T05:42:42;101246.97;;;0.62;96.77
50282;BME280;36176;51.506;10.272;2023-01-23T05:45:10;101248.69;;;0.61;96.97
50282;BME280;36176;51.506;10.272;2023-01-23T05:47:37;101255.66;;;0.61;96.62
50282;BME280;36176;51.506;10.272;2023-01-23T05:50:04;101259.13;;;0.60;96.20
50282;BME280;36176;51.506;10.272;2023-01-23T05:52:34;101267.78;;;0.59;96.84
50282;BME280;36176;51.506;10.272;2023-01-23T05:55:01;101258.22;;;0.59;96.40
50282;BME280;36176;51.506;10.272;2023-01-23T05:57:33;101267.81;;;0.62;96.97
50282;BME280;36176;51.506;10.272;2023-01-23T06:00:00;101276.56;;;0.62;96.99
50282;BME280;36176;51.506;10.272;2023-01-23T06:02:27;101277.44;;;0.63;96.69
50282;BME280;36176;51.506;10.272;2023-01-23T06:04:54;101280.16;;;0.68;96.08
50282;BME280;36176;51.506;10.272;2023-01-23T06:07:21;101287.97;;;0.68;96.32
50282;BME280;36176;51.506;10.272;2023-01-23T06:09:48;101282.66;;;0.64;96.47
50282;BME280;36176;51.506;10.272;2023-01-23T06:12:15;101279.13;;;0.61;96.64
50282;BME280;36176;51.506;10.272;2023-01-23T06:14:42;101291.34;;;0.63;96.95
50282;BME280;36176;51.506;10.272;2023-01-23T06:17:10;101297.44;;;0.62;96.72
50282;BME280;36176;51.506;10.272;2023-01-23T06:19:38;101299.13;;;0.60;96.96
50282;BME280;36176;51.506;10.272;2023-01-23T06:22:05;101307.88;;;0.64;97.10
50282;BME280;36176;51.506;10.272;2023-01-23T06:24:32;101299.19;;;0.63;97.11
50282;BME280;36176;51.506;10.272;2023-01-23T06:26:59;101306.09;;;0.61;96.75
50282;BME280;36176;51.506;10.272;2023-01-23T06:29:27;101304.41;;;0.63;97.14
50282;BME280;36176;51.506;10.272;2023-01-23T06:31:54;101307.88;;;0.62;97.05
50282;BME280;36176;51.506;10.272;2023-01-23T06:34:21;101314.78;;;0.62;97.16
50282;BME280;36176;51.506;10.272;2023-01-23T06:36:48;101318.22;;;0.59;96.79
50282;BME280;36176;51.506;10.272;2023-01-23T06:39:15;101308.69;;;0.60;96.89
50282;BME280;36176;51.506;10.272;2023-01-23T06:41:42;101311.31;;;0.61;97.02
50282;BME280;36176;51.506;10.272;2023-01-23T06:44:10;101313.91;;;0.61;97.34
50282;BME280;36176;51.506;10.272;2023-01-23T06:46:37;101313.09;;;0.62;97.33
50282;BME280;36176;51.506;10.272;2023-01-23T06:49:04;101316.50;;;0.60;96.78
50282;BME280;36176;51.506;10.272;2023-01-23T06:51:32;101320.88;;;0.61;97.04
50282;BME280;36176;51.506;10.272;2023-01-23T06:53:59;101324.38;;;0.63;97.16
50282;BME280;36176;51.506;10.272;2023-01-23T06:56:26;101333.94;;;0.62;97.18
50282;BME280;36176;51.506;10.272;2023-01-23T06:58:53;101335.75;;;0.65;96.82
50282;BME280;36176;51.506;10.272;2023-01-23T07:01:21;101330.53;;;0.65;97.12
50282;BME280;36176;51.506;10.272;2023-01-23T07:03:48;101334.81;;;0.63;97.02
50282;BME280;36176;51.506;10.272;2023-01-23T07:06:15;101339.16;;;0.62;97.46
50282;BME280;36176;51.506;10.272;2023-01-23T07:08:42;101346.13;;;0.63;97.58
50282;BME280;36176;51.506;10.272;2023-01-23T07:11:09;101348.81;;;0.67;97.25
50282;BME280;36176;51.506;10.272;2023-01-23T07:13:37;101348.91;;;0.71;97.01
50282;BME280;36176;51.506;10.272;2023-01-23T07:16:04;101354.19;;;0.73;97.36
50282;BME280;36176;51.506;10.272;2023-01-23T07:18:31;101354.22;;;0.74;96.80
50282;BME280;36176;51.506;10.272;2023-01-23T07:20:59;101361.19;;;0.75;96.67
50282;BME280;36176;51.506;10.272;2023-01-23T07:23:26;101362.13;;;0.77;96.64
50282;BME280;36176;51.506;10.272;2023-01-23T07:25:58;101363.91;;;0.80;96.45
50282;BME280;36176;51.506;10.272;2023-01-23T07:28:25;101364.78;;;0.80;96.26
50282;BME280;36176;51.506;10.272;2023-01-23T07:30:52;101358.66;;;0.78;96.22
50282;BME280;36176;51.506;10.272;2023-01-23T07:33:19;101360.38;;;0.78;95.85
50282;BME280;36176;51.506;10.272;2023-01-23T07:35:46;101364.78;;;0.80;95.98
50282;BME280;36176;51.506;10.272;2023-01-23T07:38:13;101365.72;;;0.82;95.58
50282;BME280;36176;51.506;10.272;2023-01-23T07:40:40;101378.81;;;0.84;95.84
50282;BME280;36176;51.506;10.272;2023-01-23T07:43:12;101370.06;;;0.83;95.90
50282;BME280;36176;51.506;10.272;2023-01-23T07:45:39;101376.19;;;0.84;95.71
50282;BME280;36176;51.506;10.272;2023-01-23T07:48:06;101375.41;;;0.88;95.99
50282;BME280;36176;51.506;10.272;2023-01-23T07:50:34;101379.03;;;0.95;95.61
50282;BME280;36176;51.506;10.272;2023-01-23T07:53:04;101376.47;;;0.98;94.84
50282;BME280;36176;51.506;10.272;2023-01-23T07:55:38;101382.69;;;1.03;94.76
50282;BME280;36176;51.506;10.272;2023-01-23T07:58:05;101388.06;;;1.09;94.90
50282;BME280;36176;51.506;10.272;2023-01-23T08:00:32;101378.56;;;1.13;94.39
50282;BME280;36176;51.506;10.272;2023-01-23T08:03:07;101387.28;;;1.15;94.40
50282;BME280;36176;51.506;10.272;2023-01-23T08:05:33;101394.34;;;1.19;94.68
50282;BME280;36176;51.506;10.272;2023-01-23T08:08:01;101400.59;;;1.25;94.37
50282;BME280;36176;51.506;10.272;2023-01-23T08:10:40;101398.91;;;1.29;93.92
50282;BME280;36176;51.506;10.272;2023-01-23T08:13:07;101403.38;;;1.33;94.05
50282;BME280;36176;51.506;10.272;2023-01-23T08:15:36;101387.94;;;1.45;94.32
50282;BME280;36176;51.506;10.272;2023-01-23T08:18:03;101396.94;;;1.58;93.86
50282;BME280;36176;51.506;10.272;2023-01-23T08:20:31;101397.91;;;1.63;93.50
50282;BME280;36176;51.506;10.272;2023-01-23T08:23:01;101400.63;;;1.68;93.81
50282;BME280;36176;51.506;10.272;2023-01-23T08:25:28;101409.47;;;1.76;93.73
50282;BME280;36176;51.506;10.272;2023-01-23T08:27:56;101412.13;;;1.78;93.04
50282;BME280;36176;51.506;10.272;2023-01-23T08:30:23;101414.75;;;1.79;92.74
50282;BME280;36176;51.506;10.272;2023-01-23T08:32:50;101410.47;;;1.83;92.73
50282;BME280;36176;51.506;10.272;2023-01-23T08:35:17;101421.81;;;1.83;92.59
50282;BME280;36176;51.506;10.272;2023-01-23T08:37:44;101426.19;;;1.84;92.12
50282;BME280;36176;51.506;10.272;2023-01-23T08:40:11;101424.47;;;1.86;92.06
50282;BME280;36176;51.506;10.272;2023-01-23T08:42:39;101436.66;;;1.86;92.41
50282;BME280;36176;51.506;10.272;2023-01-23T08:45:07;101435.91;;;1.90;92.21
50282;BME280;36176;51.506;10.272;2023-01-23T08:47:34;101442.03;;;1.94;92.04
50282;BME280;36176;51.506;10.272;2023-01-23T08:50:03;101438.50;;;1.91;91.18
50282;BME280;36176;51.506;10.272;2023-01-23T08:52:31;101440.19;;;1.88;91.46
50282;BME280;36176;51.506;10.272;2023-01-23T08:55:00;101442.91;;;1.92;91.46
50282;BME280;36176;51.506;10.272;2023-01-23T08:57:27;101458.59;;;1.92;91.23
50282;BME280;36176;51.506;10.272;2023-01-23T08:59:55;101457.72;;;1.94;91.40
50282;BME280;36176;51.506;10.272;2023-01-23T09:02:22;101461.41;;;2.03;91.75
50282;BME280;36176;51.506;10.272;2023-01-23T09:04:49;101454.59;;;2.11;91.12
50282;BME280;36176;51.506;10.272;2023-01-23T09:07:16;101456.34;;;2.12;91.24
50282;BME280;36176;51.506;10.272;2023-01-23T09:09:43;101466.91;;;2.16;90.26
50282;BME280;36176;51.506;10.272;2023-01-23T09:12:10;101463.41;;;2.17;90.12
50282;BME280;36176;51.506;10.272;2023-01-23T09:14:37;101461.66;;;2.16;90.32
50282;BME280;36176;51.506;10.272;2023-01-23T09:17:04;101476.53;;;2.18;90.61
50282;BME280;36176;51.506;10.272;2023-01-23T09:19:31;101474.91;;;2.25;90.20
50282;BME280;36176;51.506;10.272;2023-01-23T09:21:58;101476.63;;;2.24;89.91
50282;BME280;36176;51.506;10.272;2023-01-23T09:24:25;101476.59;;;2.21;89.91
50282;BME280;36176;51.506;10.272;2023-01-23T09:26:52;101478.47;;;2.28;90.38
50282;BME280;36176;51.506;10.272;2023-01-23T09:29:19;101478.50;;;2.31;89.82
50282;BME280;36176;51.506;10.272;2023-01-23T09:31:46;101484.47;;;2.24;89.26
50282;BME280;36176;51.506;10.272;2023-01-23T09:34:13;101485.34;;;2.23;90.07
50282;BME280;36176;51.506;10.272;2023-01-23T09:36:43;101482.66;;;2.20;88.91
50282;BME280;36176;51.506;10.272;2023-01-23T09:39:10;101486.09;;;2.16;89.04
50282;BME280;36176;51.506;10.272;2023-01-23T09:41:38;101489.53;;;2.15;89.46
50282;BME280;36176;51.506;10.272;2023-01-23T09:47:09;101481.31;;;1.95;88.91
50282;BME280;36176;51.506;10.272;2023-01-23T09:49:46;101482.94;;;1.90;89.01
50282;BME280;36176;51.506;10.272;2023-01-23T09:52:27;101484.69;;;1.89;89.19
50282;BME280;36176;51.506;10.272;2023-01-23T09:55:12;101483.78;;;1.89;88.98
50282;BME280;36176;51.506;10.272;2023-01-23T09:57:48;101477.69;;;1.88;89.58
50282;BME280;36176;51.506;10.272;2023-01-23T10:00:26;101486.50;;;1.94;89.43
50282;BME280;36176;51.506;10.272;2023-01-23T10:02:55;101484.84;;;1.99;89.30
50282;BME280;36176;51.506;10.272;2023-01-23T10:05:57;101487.53;;;2.02;88.82
50282;BME280;36176;51.506;10.272;2023-01-23T10:08:52;101487.53;;;2.02;88.94
50282;BME280;36176;51.506;10.272;2023-01-23T10:11:43;101482.19;;;1.96;89.17
50282;BME280;36176;51.506;10.272;2023-01-23T10:14:38;101488.28;;;1.96;88.97
50282;BME280;36176;51.506;10.272;2023-01-23T10:25:36;101459.88;;;2.15;88.71
50282;BME280;36176;51.506;10.272;2023-01-23T10:28:17;101465.25;;;2.22;88.25
50282;BME280;36176;51.506;10.272;2023-01-23T10:30:51;101469.56;;;2.19;88.30
50282;BME280;36176;51.506;10.272;2023-01-23T10:33:35;101460.81;;;2.17;88.34
50282;BME280;36176;51.506;10.272;2023-01-23T10:36:27;101468.66;;;2.17;88.75
50282;BME280;36176;51.506;10.272;2023-01-23T10:39:17;101460.91;;;2.21;88.47
50282;BME280;36176;51.506;10.272;2023-01-23T10:41:47;101468.78;;;2.23;87.62
50282;BME280;36176;51.506;10.272;2023-01-23T10:44:26;101460.13;;;2.27;88.38
50282;BME280;36176;51.506;10.272;2023-01-23T10:46:56;101463.69;;;2.32;88.00
50282;BME280;36176;51.506;10.272;2023-01-23T10:49:27;101466.38;;;2.35;87.42
50282;BME280;36176;51.506;10.272;2023-01-23T10:51:55;101473.50;;;2.42;87.94
50282;BME280;36176;51.506;10.272;2023-01-23T10:54:24;101458.91;;;2.57;88.22
50282;BME280;36176;51.506;10.272;2023-01-23T10:57:02;101456.44;;;2.66;87.87
50282;BME280;36176;51.506;10.272;2023-01-23T10:59:34;101460.81;;;2.67;87.07
50282;BME280;36176;51.506;10.272;2023-01-23T11:04:46;101461.91;;;2.78;86.77
50282;BME280;36176;51.506;10.272;2023-01-23T11:12:24;101457.69;;;2.89;87.79
50282;BME280;36176;51.506;10.272;2023-01-23T11:15:11;101453.56;;;3.02;86.84
50282;BME280;36176;51.506;10.272;2023-01-23T11:17:49;101448.38;;;3.07;85.77
50282;BME280;36176;51.506;10.272;2023-01-23T11:20:26;101456.38;;;3.17;86.26
50282;BME280;36176;51.506;10.272;2023-01-23T11:30:46;101452.06;;;3.19;84.98
50282;BME280;36176;51.506;10.272;2023-01-23T11:41:59;101454.34;;;2.98;86.05
50282;BME280;36176;51.506;10.272;2023-01-23T11:44:27;101448.38;;;3.07;85.95
50282;BME280;36176;51.506;10.272;2023-01-23T11:53:01;101436.22;;;3.12;85.73
50282;BME280;36176;51.506;10.272;2023-01-23T11:55:40;101430.22;;;3.19;85.64
50282;BME280;36176;51.506;10.272;2023-01-23T12:01:29;101439.06;;;3.27;84.14
50282;BME280;36176;51.506;10.272;2023-01-23T12:04:25;101441.66;;;3.24;83.80
50282;BME280;36176;51.506;10.272;2023-01-23T12:07:28;101439.00;;;3.21;84.24
50282;BME280;36176;51.506;10.272;2023-01-23T12:13:00;101441.72;;;3.29;84.85
50282;BME280;36176;51.506;10.272;2023-01-23T12:18:29;101454.00;;;3.34;84.00
50282;BME280;36176;51.506;10.272;2023-01-23T12:21:07;101457.50;;;3.35;84.80
50282;BME280;36176;51.506;10.272;2023-01-23T12:23:48;101455.97;;;3.51;85.24
50282;BME280;36176;51.506;10.272;2023-01-23T12:26:23;101449.09;;;3.57;85.26
50282;BME280;36176;51.506;10.272;2023-01-23T12:29:10;101443.03;;;3.63;84.23
50282;BME280;36176;51.506;10.272;2023-01-23T12:31:55;101439.53;;;3.62;83.62
50282;BME280;36176;51.506;10.272;2023-01-23T12:34:58;101438.59;;;3.57;84.32
50282;BME280;36176;51.506;10.272;2023-01-23T12:40:25;101436.69;;;3.46;83.51
50282;BME280;36176;51.506;10.272;2023-01-23T12:43:15;101433.13;;;3.39;84.27
50282;BME280;36176;51.506;10.272;2023-01-23T12:45:49;101422.59;;;3.36;83.60
50282;BME280;36176;51.506;10.272;2023-01-23T12:48:26;101430.50;;;3.39;84.22
50282;BME280;36176;51.506;10.272;2023-01-23T12:51:00;101431.53;;;3.50;84.79
50282;BME280;36176;51.506;10.272;2023-01-23T12:53:33;101428.03;;;3.50;83.44
50282;BME280;36176;51.506;10.272;2023-01-23T12:56:24;101429.69;;;3.45;83.70
50282;BME280;36176;51.506;10.272;2023-01-23T12:59:10;101422.63;;;3.39;83.85
50282;BME280;36176;51.506;10.272;2023-01-23T13:01:51;101414.66;;;3.31;83.90
50282;BME280;36176;51.506;10.272;2023-01-23T13:04:45;101420.78;;;3.32;83.98
50282;BME280;36176;51.506;10.272;2023-01-23T13:07:35;101417.31;;;3.33;83.41
50282;BME280;36176;51.506;10.272;2023-01-23T13:10:39;101414.66;;;3.31;83.02
50282;BME280;36176;51.506;10.272;2023-01-23T13:13:27;101410.34;;;3.33;83.84
50282;BME280;36176;51.506;10.272;2023-01-23T13:16:23;101409.56;;;3.40;83.28
50282;BME280;36176;51.506;10.272;2023-01-23T13:19:00;101411.25;;;3.37;82.94
50282;BME280;36176;51.506;10.272;2023-01-23T13:22:02;101415.56;;;3.35;83.03
50282;BME280;36176;51.506;10.272;2023-01-23T13:24:42;101419.88;;;3.30;83.15
50282;BME280;36176;51.506;10.272;2023-01-23T13:27:50;101421.59;;;3.28;83.24
50282;BME280;36176;51.506;10.272;2023-01-23T13:32:53;101418.03;;;3.21;83.47
50282;BME280;36176;51.506;10.272;2023-01-23T13:49:09;101427.84;;;3.36;83.91
50282;BME280;36176;51.506;10.272;2023-01-23T13:52:14;101431.38;;;3.38;83.50
50282;BME280;36176;51.506;10.272;2023-01-23T13:58:20;101433.13;;;3.39;83.99
50282;BME280;36176;51.506;10.272;2023-01-23T14:04:05;101428.69;;;3.33;84.03
50282;BME280;36176;51.506;10.272;2023-01-23T14:07:32;101439.94;;;3.26;83.43
50282;BME280;36176;51.506;10.272;2023-01-23T14:10:31;101442.44;;;3.20;83.95
50282;BME280;36176;51.506;10.272;2023-01-23T14:13:17;101434.56;;;3.17;83.82
50282;BME280;36176;51.506;10.272;2023-01-23T14:16:00;101440.69;;;3.19;83.80
50282;BME280;36176;51.506;10.272;2023-01-23T14:18:53;101443.28;;;3.17;84.40
50282;BME280;36176;51.506;10.272;2023-01-23T14:21:37;101444.13;;;3.15;84.50
50282;BME280;36176;51.506;10.272;2023-01-23T14:24:28;101442.44;;;3.18;84.38
50282;BME280;36176;51.506;10.272;2023-01-23T14:27:07;101439.06;;;3.26;84.46
50282;BME280;36176;51.506;10.272;2023-01-23T14:29:36;101444.22;;;3.21;84.33
50282;BME280;36176;51.506;10.272;2023-01-23T14:32:03;101440.75;;;3.22;84.39
50282;BME280;36176;51.506;10.272;2023-01-23T14:34:37;101440.69;;;3.20;84.70
50282;BME280;36176;51.506;10.272;2023-01-23T14:37:09;101438.16;;;3.25;85.11